Time;durP1;ratioP1;P1;durP2;ratioP2;P2;SDS_P1;SDS_P2;PMS_P1;PMS_P2;Temp;Humidity;BMP_temperature;BMP_pressure;BME280_temperature;BME280_humidity;BME280_pressure;Samples;Min_cycle;Max_cycle;Signal;HPM_P1;HPM_P2
2023/05/07 00:00:42;;;;;;;26.97;23.53;;;;;;;;;;5063737;28;20499;-82
2023/05/07 00:03:08;;;;;;;28.43;22.30;;;;;;;;;;5068677;28;20468;-83
2023/05/07 00:05:35;;;;;;;24.90;20.30;;;;;;;;;;5071535;28;20487;-83
2023/05/07 00:08:02;;;;;;;24.37;20.87;;;;;;;;;;5064833;28;20996;-82
2023/05/07 00:10:28;;;;;;;25.17;22.10;;;;;;;;;;5067897;28;20479;-83
2023/05/07 00:12:56;;;;;;;25.03;21.47;;;;;;;;;;5070165;28;20479;-83
2023/05/07 00:15:22;;;;;;;28.30;24.03;;;;;;;;;;5069257;28;20476;-80
2023/05/07 00:17:49;;;;;;;28.60;21.77;;;;;;;;;;5065544;28;20524;-81
2023/05/07 00:20:16;;;;;;;26.47;23.67;;;;;;;;;;5064015;28;20460;-81
2023/05/07 00:22:42;;;;;;;22.83;20.30;;;;;;;;;;5070529;28;20454;-81
2023/05/07 00:25:10;;;;;;;25.57;21.97;;;;;;;;;;5062917;28;20460;-80
2023/05/07 00:27:36;;;;;;;26.33;23.53;;;;;;;;;;5066740;28;21008;-80
2023/05/07 00:30:04;;;;;;;28.53;23.30;;;;;;;;;;5065914;28;20445;-81
2023/05/07 00:32:31;;;;;;;26.67;23.53;;;;;;;;;;5061713;28;20628;-84
2023/05/07 00:34:57;;;;;;;28.67;24.50;;;;;;;;;;5064031;28;21058;-82
2023/05/07 00:37:23;;;;;;;25.73;21.70;;;;;;;;;;5062865;28;20480;-82
2023/05/07 00:39:50;;;;;;;26.97;23.97;;;;;;;;;;5063451;28;20485;-83
2023/05/07 00:42:16;;;;;;;26.63;22.97;;;;;;;;;;5063521;28;20493;-82
2023/05/07 00:44:43;;;;;;;28.30;22.33;;;;;;;;;;5063531;28;20453;-81
2023/05/07 00:47:11;;;;;;;28.93;21.50;;;;;;;;;;5061578;28;20472;-81
2023/05/07 00:49:39;;;;;;;24.43;21.73;;;;;;;;;;5065431;28;20476;-81
2023/05/07 00:52:06;;;;;;;27.43;24.53;;;;;;;;;;5068659;28;20492;-80
2023/05/07 00:54:33;;;;;;;27.33;22.80;;;;;;;;;;5069662;28;20488;-80
2023/05/07 00:57:00;;;;;;;25.87;21.70;;;;;;;;;;5068708;28;20546;-81
2023/05/07 00:59:26;;;;;;;28.83;23.53;;;;;;;;;;5066846;28;20460;-81
2023/05/07 01:01:53;;;;;;;29.33;22.00;;;;;;;;;;5061753;28;20477;-80
2023/05/07 01:04:20;;;;;;;32.57;23.50;;;;;;;;;;5065295;28;20473;-80
2023/05/07 01:06:48;;;;;;;26.43;23.40;;;;;;;;;;5062093;28;20899;-80
2023/05/07 01:09:14;;;;;;;28.70;24.37;;;;;;;;;;5063269;28;21071;-81
2023/05/07 01:11:42;;;;;;;27.73;23.53;;;;;;;;;;5068956;28;20508;-80
2023/05/07 01:14:09;;;;;;;27.23;23.13;;;;;;;;;;5069635;28;20490;-80
2023/05/07 01:16:36;;;;;;;28.20;23.77;;;;;;;;;;5066414;28;20503;-80
2023/05/07 01:19:02;;;;;;;29.60;24.00;;;;;;;;;;5075379;28;20491;-81
2023/05/07 01:21:33;;;;;;;29.33;23.97;;;;;;;;;;5067086;28;20476;-81
2023/05/07 01:24:01;;;;;;;32.40;24.47;;;;;;;;;;5068600;28;20456;-81
2023/05/07 01:26:28;;;;;;;29.00;25.60;;;;;;;;;;5064889;28;20496;-81
2023/05/07 01:28:54;;;;;;;31.90;24.47;;;;;;;;;;5070946;28;20500;-81
2023/05/07 01:31:21;;;;;;;27.07;22.70;;;;;;;;;;5064685;28;20559;-81
2023/05/07 01:33:49;;;;;;;29.73;22.87;;;;;;;;;;5062770;28;20456;-80
2023/05/07 01:36:17;;;;;;;27.03;24.07;;;;;;;;;;5070233;28;20544;-80
2023/05/07 01:38:44;;;;;;;26.50;22.70;;;;;;;;;;5071845;28;20832;-81
2023/05/07 01:41:12;;;;;;;26.00;21.60;;;;;;;;;;5064658;28;20475;-81
2023/05/07 01:43:39;;;;;;;29.93;25.57;;;;;;;;;;5071621;28;20464;-81
2023/05/07 01:46:05;;;;;;;32.50;26.43;;;;;;;;;;5070368;28;20476;-81
2023/05/07 01:48:32;;;;;;;31.60;26.60;;;;;;;;;;5067193;28;20512;-81
2023/05/07 01:50:59;;;;;;;28.87;24.33;;;;;;;;;;5067716;28;20499;-80
2023/05/07 01:53:27;;;;;;;28.83;24.77;;;;;;;;;;5060964;28;20484;-80
2023/05/07 01:55:54;;;;;;;31.20;24.63;;;;;;;;;;5061939;28;20519;-81
2023/05/07 01:58:22;;;;;;;29.73;26.40;;;;;;;;;;5062191;28;20521;-81
2023/05/07 02:00:48;;;;;;;30.77;26.00;;;;;;;;;;5067055;28;20476;-80
2023/05/07 02:03:15;;;;;;;30.43;27.17;;;;;;;;;;5064271;28;20924;-80
2023/05/07 02:05:41;;;;;;;31.60;26.10;;;;;;;;;;5060877;28;21105;-81
2023/05/07 02:08:08;;;;;;;30.60;24.17;;;;;;;;;;5064799;28;20808;-81
2023/05/07 02:10:35;;;;;;;27.33;23.67;;;;;;;;;;5064715;28;20959;-81
2023/05/07 02:13:02;;;;;;;32.67;25.73;;;;;;;;;;5062523;28;20488;-83
2023/05/07 02:15:30;;;;;;;29.07;25.37;;;;;;;;;;5058447;28;20469;-83
2023/05/07 02:17:59;;;;;;;34.03;25.70;;;;;;;;;;5061654;28;20485;-83
2023/05/07 02:20:26;;;;;;;33.80;25.33;;;;;;;;;;5061470;28;21108;-82
2023/05/07 02:22:52;;;;;;;30.70;25.00;;;;;;;;;;5061312;28;20479;-80
2023/05/07 02:25:19;;;;;;;31.27;24.23;;;;;;;;;;5061341;28;20484;-80
2023/05/07 02:27:45;;;;;;;32.03;24.70;;;;;;;;;;5062264;28;20461;-80
2023/05/07 02:30:12;;;;;;;27.93;24.43;;;;;;;;;;5060288;28;20516;-80
2023/05/07 02:32:40;;;;;;;31.03;24.23;;;;;;;;;;5062041;28;20492;-81
2023/05/07 02:35:06;;;;;;;30.20;25.33;;;;;;;;;;5063933;28;20522;-80
2023/05/07 02:37:33;;;;;;;30.87;25.20;;;;;;;;;;5061084;28;21004;-80
2023/05/07 02:39:59;;;;;;;30.63;27.30;;;;;;;;;;5060681;28;20502;-80
2023/05/07 02:42:26;;;;;;;31.63;25.80;;;;;;;;;;5059891;28;20583;-80
2023/05/07 02:44:52;;;;;;;29.97;25.00;;;;;;;;;;5061042;28;20495;-80
2023/05/07 02:47:19;;;;;;;31.33;25.60;;;;;;;;;;5060360;28;20642;-80
2023/05/07 02:49:46;;;;;;;31.93;25.30;;;;;;;;;;5055420;28;20489;-80
2023/05/07 02:52:13;;;;;;;27.70;23.70;;;;;;;;;;5062198;28;20508;-80
2023/05/07 02:54:39;;;;;;;31.73;27.47;;;;;;;;;;5060561;28;20453;-80
2023/05/07 02:57:06;;;;;;;29.70;24.13;;;;;;;;;;5061469;28;20480;-80
2023/05/07 02:59:32;;;;;;;33.63;25.53;;;;;;;;;;5064116;28;20481;-80
2023/05/07 03:01:59;;;;;;;29.00;24.50;;;;;;;;;;5064321;28;20484;-80
2023/05/07 03:04:25;;;;;;;32.07;25.00;;;;;;;;;;5066039;28;20451;-81
2023/05/07 03:06:53;;;;;;;29.60;25.37;;;;;;;;;;5069796;28;21198;-81
2023/05/07 03:09:19;;;;;;;32.47;26.13;;;;;;;;;;5061621;28;20583;-81
2023/05/07 03:11:46;;;;;;;31.77;26.70;;;;;;;;;;5063178;28;20491;-80
2023/05/07 03:14:12;;;;;;;30.23;23.70;;;;;;;;;;5060081;28;20451;-80
2023/05/07 03:16:39;;;;;;;31.60;25.10;;;;;;;;;;5063386;28;20500;-80
2023/05/07 03:19:05;;;;;;;32.53;27.30;;;;;;;;;;5061067;28;20532;-80
2023/05/07 03:21:33;;;;;;;36.10;26.50;;;;;;;;;;5063507;28;20500;-80
2023/05/07 03:24:01;;;;;;;31.87;24.50;;;;;;;;;;5060289;28;20489;-80
2023/05/07 03:26:27;;;;;;;33.17;28.00;;;;;;;;;;5060346;28;20469;-83
2023/05/07 03:28:55;;;;;;;31.23;26.40;;;;;;;;;;5061950;28;20469;-82
2023/05/07 03:31:21;;;;;;;31.23;26.00;;;;;;;;;;5060664;28;20920;-82
2023/05/07 03:33:51;;;;;;;34.30;24.70;;;;;;;;;;5067054;28;20515;-82
2023/05/07 03:36:18;;;;;;;36.17;27.30;;;;;;;;;;5063736;28;20494;-82
2023/05/07 03:38:44;;;;;;;30.93;25.90;;;;;;;;;;5060617;28;20448;-82
2023/05/07 03:41:13;;;;;;;31.23;27.87;;;;;;;;;;5059473;28;20479;-82
2023/05/07 03:43:39;;;;;;;32.10;26.33;;;;;;;;;;5061824;28;20484;-82
2023/05/07 03:46:06;;;;;;;30.17;26.10;;;;;;;;;;5059354;28;20469;-77
2023/05/07 03:48:32;;;;;;;32.60;25.97;;;;;;;;;;5062039;28;20461;-77
2023/05/07 03:50:58;;;;;;;36.57;28.00;;;;;;;;;;5063765;28;20512;-77
2023/05/07 03:53:25;;;;;;;32.67;26.90;;;;;;;;;;5060446;28;20520;-78
2023/05/07 03:55:51;;;;;;;36.30;29.60;;;;;;;;;;5065318;28;20499;-77
2023/05/07 03:58:20;;;;;;;35.83;26.13;;;;;;;;;;5067820;28;20460;-77
2023/05/07 04:00:46;;;;;;;35.30;30.93;;;;;;;;;;5062669;28;20856;-77
2023/05/07 04:03:12;;;;;;;29.93;25.37;;;;;;;;;;5066933;28;20586;-76
2023/05/07 04:05:39;;;;;;;34.93;27.23;;;;;;;;;;5063459;28;20634;-76
2023/05/07 04:08:05;;;;;;;40.87;28.67;;;;;;;;;;5068388;28;20531;-76
2023/05/07 04:10:32;;;;;;;32.27;25.73;;;;;;;;;;5063495;28;21427;-76
2023/05/07 04:12:58;;;;;;;34.50;26.93;;;;;;;;;;5073482;28;20476;-75
2023/05/07 04:15:26;;;;;;;35.07;25.83;;;;;;;;;;5066642;28;20766;-75
2023/05/07 04:17:52;;;;;;;34.10;28.37;;;;;;;;;;5066221;28;20490;-76
2023/05/07 04:20:19;;;;;;;37.77;26.03;;;;;;;;;;5071688;28;20448;-76
2023/05/07 04:22:45;;;;;;;36.10;27.27;;;;;;;;;;5053073;28;20483;-77
2023/05/07 04:25:12;;;;;;;34.20;27.40;;;;;;;;;;5063184;28;20489;-78
2023/05/07 04:27:38;;;;;;;35.37;25.47;;;;;;;;;;5064877;28;20480;-78
2023/05/07 04:30:06;;;;;;;34.60;27.80;;;;;;;;;;5069482;28;20512;-78
2023/05/07 04:32:34;;;;;;;30.43;26.37;;;;;;;;;;5061599;28;20475;-78
2023/05/07 04:35:00;;;;;;;32.43;28.93;;;;;;;;;;5063629;28;20484;-78
2023/05/07 04:37:27;;;;;;;32.33;27.30;;;;;;;;;;5062557;28;20527;-78
2023/05/07 04:39:53;;;;;;;36.47;27.50;;;;;;;;;;5064065;28;21213;-78
2023/05/07 04:42:20;;;;;;;33.77;28.17;;;;;;;;;;5062419;28;20473;-78
2023/05/07 04:44:46;;;;;;;38.40;29.80;;;;;;;;;;5063284;28;20452;-78
2023/05/07 04:47:12;;;;;;;35.07;27.07;;;;;;;;;;5063157;28;20515;-81
2023/05/07 04:49:40;;;;;;;36.50;26.07;;;;;;;;;;5063622;28;20579;-82
2023/05/07 04:52:06;;;;;;;31.40;25.17;;;;;;;;;;5069379;28;20500;-83
2023/05/07 04:54:33;;;;;;;36.73;29.53;;;;;;;;;;5062536;28;20464;-83
2023/05/07 04:56:59;;;;;;;37.30;28.87;;;;;;;;;;5063110;28;20472;-83
2023/05/07 04:59:26;;;;;;;39.87;29.20;;;;;;;;;;5062472;28;20468;-82
2023/05/07 05:01:52;;;;;;;38.30;28.60;;;;;;;;;;5071395;28;20507;-81
2023/05/07 05:04:18;;;;;;;35.93;28.60;;;;;;;;;;5061571;28;20480;-81
2023/05/07 05:06:46;;;;;;;36.20;28.97;;;;;;;;;;5061113;28;20492;-81
2023/05/07 05:09:14;;;;;;;38.77;29.20;;;;;;;;;;5065593;28;20496;-79
2023/05/07 05:11:40;;;;;;;43.67;28.33;;;;;;;;;;5063693;28;20503;-79
2023/05/07 05:14:06;;;;;;;36.03;26.83;;;;;;;;;;5063438;28;20445;-80
2023/05/07 05:16:33;;;;;;;36.03;27.40;;;;;;;;;;5062593;28;20473;-81
2023/05/07 05:19:00;;;;;;;34.87;27.67;;;;;;;;;;5064911;28;20460;-81
2023/05/07 05:21:26;;;;;;;35.67;27.00;;;;;;;;;;5068017;28;20487;-81
2023/05/07 05:23:54;;;;;;;36.07;30.47;;;;;;;;;;5067868;28;20449;-80
2023/05/07 05:26:21;;;;;;;43.10;30.53;;;;;;;;;;5073656;28;20480;-81
2023/05/07 05:28:47;;;;;;;31.33;27.90;;;;;;;;;;5079210;28;20506;-81
2023/05/07 05:31:14;;;;;;;35.97;29.30;;;;;;;;;;5061741;28;20474;-80
2023/05/07 05:33:40;;;;;;;36.90;27.30;;;;;;;;;;5060844;28;20536;-80
2023/05/07 05:36:07;;;;;;;32.13;25.70;;;;;;;;;;5057691;28;20473;-81
2023/05/07 05:38:33;;;;;;;40.30;30.97;;;;;;;;;;5065350;28;20456;-81
2023/05/07 05:41:01;;;;;;;33.43;27.40;;;;;;;;;;5064494;28;20489;-79
2023/05/07 05:43:28;;;;;;;38.97;27.30;;;;;;;;;;5069541;28;20453;-78
2023/05/07 05:45:54;;;;;;;36.83;28.10;;;;;;;;;;5066358;28;20559;-79
2023/05/07 05:48:20;;;;;;;41.13;28.53;;;;;;;;;;5070928;28;20549;-79
2023/05/07 05:50:47;;;;;;;33.03;26.93;;;;;;;;;;5061543;28;20512;-79
2023/05/07 05:53:13;;;;;;;36.57;26.90;;;;;;;;;;5062631;28;20449;-79
2023/05/07 05:55:40;;;;;;;32.53;27.60;;;;;;;;;;5062012;28;20496;-80
2023/05/07 05:58:08;;;;;;;33.03;25.90;;;;;;;;;;5063481;28;20498;-78
2023/05/07 06:00:34;;;;;;;34.20;25.20;;;;;;;;;;5057618;28;20496;-82
2023/05/07 06:03:01;;;;;;;34.87;28.10;;;;;;;;;;5062449;28;20512;-80
2023/05/07 06:05:27;;;;;;;32.37;25.60;;;;;;;;;;5068664;28;20469;-80
2023/05/07 06:07:53;;;;;;;31.43;25.40;;;;;;;;;;5069646;28;20475;-80
2023/05/07 06:10:20;;;;;;;31.20;26.80;;;;;;;;;;5070033;28;20469;-81
2023/05/07 06:12:46;;;;;;;30.23;23.07;;;;;;;;;;5062121;28;20769;-83
2023/05/07 06:15:14;;;;;;;32.00;25.30;;;;;;;;;;5062190;28;20464;-80
2023/05/07 06:17:41;;;;;;;27.63;23.50;;;;;;;;;;5062053;28;20480;-80
2023/05/07 06:20:08;;;;;;;30.73;25.10;;;;;;;;;;5067150;28;20495;-79
2023/05/07 06:22:34;;;;;;;29.60;25.03;;;;;;;;;;5067126;28;20491;-80
2023/05/07 06:25:00;;;;;;;29.50;23.23;;;;;;;;;;5063361;28;20463;-80
2023/05/07 06:27:27;;;;;;;27.80;23.10;;;;;;;;;;5062007;28;20473;-80
2023/05/07 06:29:54;;;;;;;26.50;22.93;;;;;;;;;;5066656;28;20556;-79
2023/05/07 06:32:22;;;;;;;30.63;24.83;;;;;;;;;;5069692;28;20480;-80
2023/05/07 06:34:48;;;;;;;26.07;21.47;;;;;;;;;;5072601;28;20507;-82
2023/05/07 06:37:15;;;;;;;27.80;23.57;;;;;;;;;;5063959;28;20555;-80
2023/05/07 06:39:41;;;;;;;26.63;21.77;;;;;;;;;;5070406;28;20445;-80
2023/05/07 06:42:07;;;;;;;25.53;21.20;;;;;;;;;;5065651;28;20560;-80
2023/05/07 06:44:34;;;;;;;27.57;20.67;;;;;;;;;;5067562;28;20480;-81
2023/05/07 06:47:00;;;;;;;26.97;21.37;;;;;;;;;;5067936;28;20496;-80
2023/05/07 06:49:28;;;;;;;25.50;22.00;;;;;;;;;;5074208;28;20487;-80
2023/05/07 06:51:55;;;;;;;24.97;20.07;;;;;;;;;;5063448;28;20476;-80
2023/05/07 06:54:21;;;;;;;27.40;21.30;;;;;;;;;;5063947;28;20559;-80
2023/05/07 06:56:48;;;;;;;25.50;20.00;;;;;;;;;;5061242;28;20500;-80
2023/05/07 06:59:14;;;;;;;23.50;20.90;;;;;;;;;;5066389;28;20486;-79
2023/05/07 07:01:41;;;;;;;26.47;20.00;;;;;;;;;;5060480;28;20480;-82
2023/05/07 07:04:07;;;;;;;24.77;18.67;;;;;;;;;;5063847;28;20457;-82
2023/05/07 07:06:35;;;;;;;20.23;17.90;;;;;;;;;;5066682;28;20838;-82
2023/05/07 07:09:01;;;;;;;22.50;18.80;;;;;;;;;;5064241;28;20487;-82
2023/05/07 07:11:28;;;;;;;22.50;19.40;;;;;;;;;;5063895;28;20535;-83
2023/05/07 07:13:55;;;;;;;21.77;18.50;;;;;;;;;;5066628;28;20449;-82
2023/05/07 07:16:21;;;;;;;21.07;17.90;;;;;;;;;;5067786;28;20484;-82
2023/05/07 07:18:48;;;;;;;19.67;17.17;;;;;;;;;;5061796;28;20485;-82
2023/05/07 07:21:14;;;;;;;17.63;14.07;;;;;;;;;;5061027;28;20496;-81
2023/05/07 07:23:42;;;;;;;18.03;15.00;;;;;;;;;;5062044;28;20460;-82
2023/05/07 07:26:08;;;;;;;19.90;15.77;;;;;;;;;;5063541;28;20512;-82
2023/05/07 07:28:35;;;;;;;17.63;15.73;;;;;;;;;;5063270;28;20818;-82
2023/05/07 07:31:01;;;;;;;19.43;17.37;;;;;;;;;;5065176;28;20472;-81
2023/05/07 07:33:28;;;;;;;16.97;14.70;;;;;;;;;;5063090;28;20457;-81
2023/05/07 07:35:54;;;;;;;17.67;15.30;;;;;;;;;;5066496;28;20502;-81
2023/05/07 07:38:21;;;;;;;17.10;15.33;;;;;;;;;;5070081;28;20479;-82
2023/05/07 07:40:49;;;;;;;19.23;16.63;;;;;;;;;;5067777;28;20514;-82
2023/05/07 07:43:16;;;;;;;14.90;12.80;;;;;;;;;;5065472;28;20940;-81
2023/05/07 07:45:42;;;;;;;18.53;15.40;;;;;;;;;;5066499;28;20472;-82
2023/05/07 07:48:09;;;;;;;18.53;14.73;;;;;;;;;;5065020;28;20835;-82
2023/05/07 07:50:35;;;;;;;18.30;15.13;;;;;;;;;;5064957;28;20472;-81
2023/05/07 07:53:01;;;;;;;17.70;14.90;;;;;;;;;;5065094;28;20452;-81
2023/05/07 07:55:28;;;;;;;15.53;13.97;;;;;;;;;;5069626;28;20512;-81
2023/05/07 07:57:56;;;;;;;20.03;14.73;;;;;;;;;;5067953;28;20472;-83
2023/05/07 08:00:22;;;;;;;17.20;14.23;;;;;;;;;;5066235;28;20535;-82
2023/05/07 08:02:49;;;;;;;17.73;13.30;;;;;;;;;;5066974;28;20489;-81
2023/05/07 08:05:16;;;;;;;15.87;14.17;;;;;;;;;;5064163;28;20953;-82
2023/05/07 08:07:42;;;;;;;14.30;12.20;;;;;;;;;;5064179;28;21263;-81
2023/05/07 08:10:09;;;;;;;16.40;14.67;;;;;;;;;;5068389;28;20523;-80
2023/05/07 08:12:35;;;;;;;15.80;14.30;;;;;;;;;;5063215;28;20516;-81
2023/05/07 08:15:03;;;;;;;15.77;13.70;;;;;;;;;;5074005;28;20504;-81
2023/05/07 08:17:30;;;;;;;16.30;14.20;;;;;;;;;;5068869;28;20479;-83
2023/05/07 08:19:56;;;;;;;15.23;13.33;;;;;;;;;;5064023;28;20441;-81
2023/05/07 08:22:23;;;;;;;13.60;12.30;;;;;;;;;;5062972;28;20508;-81
2023/05/07 08:24:49;;;;;;;14.80;13.20;;;;;;;;;;5064516;28;20518;-81
2023/05/07 08:27:16;;;;;;;14.03;12.57;;;;;;;;;;5063314;28;21205;-81
2023/05/07 08:29:42;;;;;;;13.40;11.97;;;;;;;;;;5063750;28;20846;-82
2023/05/07 08:32:10;;;;;;;14.60;13.07;;;;;;;;;;5068071;28;20503;-81
2023/05/07 08:34:36;;;;;;;16.37;13.00;;;;;;;;;;5066557;28;20491;-81
2023/05/07 08:37:03;;;;;;;14.90;12.70;;;;;;;;;;5063843;28;20491;-80
2023/05/07 08:39:30;;;;;;;16.10;13.53;;;;;;;;;;5068049;28;20457;-81
2023/05/07 08:41:57;;;;;;;15.70;14.03;;;;;;;;;;5062511;28;20538;-81
2023/05/07 08:44:27;;;;;;;12.63;11.17;;;;;;;;;;5064164;28;21113;-80
2023/05/07 08:46:54;;;;;;;16.10;11.93;;;;;;;;;;5061210;28;20484;-80
2023/05/07 08:49:22;;;;;;;14.17;12.37;;;;;;;;;;5071945;28;20462;-81
2023/05/07 08:51:49;;;;;;;14.87;12.40;;;;;;;;;;5062953;28;20508;-80
2023/05/07 08:54:17;;;;;;;14.20;12.70;;;;;;;;;;5062732;28;20472;-81
2023/05/07 08:56:44;;;;;;;13.43;12.13;;;;;;;;;;5062245;28;20492;-80
2023/05/07 08:59:10;;;;;;;14.20;12.70;;;;;;;;;;5069726;28;21086;-81
2023/05/07 09:01:38;;;;;;;14.27;12.77;;;;;;;;;;5063291;28;20828;-81
2023/05/07 09:04:05;;;;;;;14.67;13.03;;;;;;;;;;5060786;28;20508;-81
2023/05/07 09:06:33;;;;;;;14.67;12.60;;;;;;;;;;5062955;28;20473;-79
2023/05/07 09:09:01;;;;;;;13.60;12.10;;;;;;;;;;5063011;28;20516;-80
2023/05/07 09:11:27;;;;;;;15.80;11.47;;;;;;;;;;5062567;28;20473;-81
2023/05/07 09:13:54;;;;;;;14.63;13.20;;;;;;;;;;5063499;28;20441;-81
2023/05/07 09:16:22;;;;;;;12.50;10.60;;;;;;;;;;5062908;28;20543;-81
2023/05/07 09:18:51;;;;;;;14.93;13.53;;;;;;;;;;5064256;28;20444;-82
2023/05/07 09:21:18;;;;;;;13.30;12.10;;;;;;;;;;5067549;28;20527;-81
2023/05/07 09:23:46;;;;;;;12.23;10.63;;;;;;;;;;5071764;28;20457;-81
2023/05/07 09:26:12;;;;;;;11.00;9.87;;;;;;;;;;5062320;28;21244;-81
2023/05/07 09:28:39;;;;;;;13.40;11.53;;;;;;;;;;5063118;28;20464;-81
2023/05/07 09:31:06;;;;;;;11.73;10.00;;;;;;;;;;5065698;28;20893;-81
2023/05/07 09:33:32;;;;;;;12.90;11.60;;;;;;;;;;5061800;28;20496;-81
2023/05/07 09:35:59;;;;;;;13.00;11.70;;;;;;;;;;5064376;28;20888;-83
2023/05/07 09:38:28;;;;;;;14.23;12.67;;;;;;;;;;5057537;28;20449;-80
2023/05/07 09:41:04;;;;;;;14.97;10.87;;;;;;;;;;5066582;28;20500;-80
2023/05/07 09:43:32;;;;;;;15.13;11.07;;;;;;;;;;5064714;28;20923;-81
2023/05/07 09:45:59;;;;;;;12.30;10.40;;;;;;;;;;5063584;28;20477;-81
2023/05/07 09:48:26;;;;;;;11.80;10.50;;;;;;;;;;5066594;28;20500;-81
2023/05/07 09:50:56;;;;;;;13.03;10.30;;;;;;;;;;5062118;28;20572;-80
2023/05/07 09:53:23;;;;;;;12.93;11.50;;;;;;;;;;5061908;28;20471;-83
2023/05/07 09:55:50;;;;;;;10.83;9.80;;;;;;;;;;5062128;28;20500;-81
2023/05/07 09:58:18;;;;;;;12.70;11.40;;;;;;;;;;5063252;28;20480;-81
2023/05/07 10:00:45;;;;;;;12.23;11.00;;;;;;;;;;5062216;28;20476;-79
2023/05/07 10:03:12;;;;;;;11.93;10.73;;;;;;;;;;5052548;28;20553;-84
2023/05/07 10:05:39;;;;;;;13.03;11.40;;;;;;;;;;5063143;28;20549;-81
2023/05/07 10:08:06;;;;;;;12.03;10.10;;;;;;;;;;5067873;28;21082;-81
2023/05/07 10:10:33;;;;;;;13.07;11.30;;;;;;;;;;5061266;28;20524;-81
2023/05/07 10:13:00;;;;;;;15.40;12.17;;;;;;;;;;5061880;28;20480;-81
2023/05/07 10:15:29;;;;;;;11.83;10.70;;;;;;;;;;5061793;28;20465;-81
2023/05/07 10:17:55;;;;;;;12.20;10.90;;;;;;;;;;5060658;28;20461;-81
2023/05/07 10:20:22;;;;;;;12.90;11.57;;;;;;;;;;5061785;28;20460;-81
2023/05/07 10:22:49;;;;;;;13.70;10.17;;;;;;;;;;5061975;28;20477;-81
2023/05/07 10:25:18;;;;;;;12.00;10.80;;;;;;;;;;5060700;28;20453;-81
2023/05/07 10:27:46;;;;;;;13.47;11.23;;;;;;;;;;5062885;28;21059;-81
2023/05/07 10:30:16;;;;;;;12.87;10.30;;;;;;;;;;5066287;28;20460;-81
2023/05/07 10:32:46;;;;;;;12.80;10.53;;;;;;;;;;5061827;28;20449;-81
2023/05/07 10:35:16;;;;;;;12.60;11.30;;;;;;;;;;5063073;28;20449;-84
2023/05/07 10:37:42;;;;;;;12.30;11.20;;;;;;;;;;5058431;28;20448;-82
2023/05/07 10:40:10;;;;;;;10.17;9.10;;;;;;;;;;5060793;28;20725;-82
2023/05/07 10:42:37;;;;;;;11.87;10.77;;;;;;;;;;5067447;28;20961;-80
2023/05/07 10:45:12;;;;;;;12.60;11.40;;;;;;;;;;5063758;28;20859;-81
2023/05/07 10:48:06;;;;;;;11.90;10.60;;;;;;;;;;5060382;28;20492;-84
2023/05/07 10:50:32;;;;;;;10.10;9.20;;;;;;;;;;5054208;28;20507;-83
2023/05/07 10:53:17;;;;;;;13.10;9.60;;;;;;;;;;5060763;28;20486;-81
2023/05/07 10:56:13;;;;;;;11.23;10.13;;;;;;;;;;5053156;28;20499;-83
2023/05/07 10:58:39;;;;;;;10.23;9.13;;;;;;;;;;5059817;28;20461;-81
2023/05/07 11:01:06;;;;;;;10.80;9.70;;;;;;;;;;5059802;28;21060;-81
2023/05/07 11:03:33;;;;;;;9.70;8.70;;;;;;;;;;5062095;28;20476;-81
2023/05/07 11:06:09;;;;;;;11.40;9.90;;;;;;;;;;5066422;28;20548;-81
2023/05/07 11:08:51;;;;;;;11.90;10.70;;;;;;;;;;5065730;28;20789;-81
2023/05/07 11:11:17;;;;;;;11.50;10.40;;;;;;;;;;5063926;28;20595;-81
2023/05/07 11:13:44;;;;;;;11.50;10.30;;;;;;;;;;5065754;28;20476;-82
2023/05/07 11:16:17;;;;;;;11.70;8.73;;;;;;;;;;5065834;28;20483;-81
2023/05/07 11:18:49;;;;;;;10.93;8.93;;;;;;;;;;5059760;28;20486;-82
2023/05/07 11:21:31;;;;;;;9.70;8.77;;;;;;;;;;5064145;28;20476;-82
2023/05/07 11:24:00;;;;;;;11.30;10.20;;;;;;;;;;5067294;28;20535;-82
2023/05/07 11:26:28;;;;;;;11.20;10.10;;;;;;;;;;5064132;28;20503;-81
2023/05/07 11:28:55;;;;;;;10.10;9.10;;;;;;;;;;5066316;28;20456;-81
2023/05/07 11:31:23;;;;;;;10.23;9.23;;;;;;;;;;5067782;28;20507;-81
2023/05/07 11:33:51;;;;;;;9.00;8.10;;;;;;;;;;5064191;28;20456;-84
2023/05/07 11:36:18;;;;;;;9.87;8.80;;;;;;;;;;5065688;28;20511;-82
2023/05/07 11:38:45;;;;;;;11.47;8.90;;;;;;;;;;5065170;28;20448;-82
2023/05/07 11:41:12;;;;;;;9.80;8.90;;;;;;;;;;5064283;28;20480;-82
2023/05/07 11:43:39;;;;;;;8.43;7.63;;;;;;;;;;5076637;28;20546;-82
2023/05/07 11:46:07;;;;;;;8.90;8.00;;;;;;;;;;5065025;28;20480;-81
2023/05/07 11:48:34;;;;;;;8.47;7.57;;;;;;;;;;5061659;28;20535;-82
2023/05/07 11:51:02;;;;;;;8.23;7.43;;;;;;;;;;5064372;28;20500;-82
2023/05/07 11:53:35;;;;;;;7.70;7.00;;;;;;;;;;5071316;28;20462;-83
2023/05/07 11:56:06;;;;;;;8.53;7.70;;;;;;;;;;5062976;28;20472;-81
2023/05/07 11:58:32;;;;;;;9.77;8.10;;;;;;;;;;5064565;28;20461;-82
2023/05/07 12:00:59;;;;;;;7.20;6.50;;;;;;;;;;5064569;28;20499;-82
2023/05/07 12:03:25;;;;;;;8.27;7.40;;;;;;;;;;5066361;28;20463;-82
2023/05/07 12:05:52;;;;;;;7.40;6.70;;;;;;;;;;5063917;28;20473;-82
2023/05/07 12:08:20;;;;;;;9.20;7.83;;;;;;;;;;5073285;28;20743;-82
2023/05/07 12:10:48;;;;;;;7.20;6.40;;;;;;;;;;5051052;28;20554;-82
2023/05/07 12:13:15;;;;;;;8.43;7.07;;;;;;;;;;5066097;28;20464;-82
2023/05/07 12:15:42;;;;;;;6.60;5.90;;;;;;;;;;5063400;28;20538;-82
2023/05/07 12:18:08;;;;;;;6.00;5.50;;;;;;;;;;5065768;28;20484;-82
2023/05/07 12:20:35;;;;;;;7.87;6.83;;;;;;;;;;5065093;28;20495;-82
2023/05/07 12:23:02;;;;;;;8.00;6.50;;;;;;;;;;5065840;28;20476;-81
2023/05/07 12:25:32;;;;;;;7.97;6.67;;;;;;;;;;5071479;28;20475;-82
2023/05/07 12:28:01;;;;;;;7.80;7.03;;;;;;;;;;5066166;28;20449;-82
2023/05/07 12:30:27;;;;;;;6.40;5.80;;;;;;;;;;5070807;28;20492;-83
2023/05/07 12:32:54;;;;;;;6.90;6.20;;;;;;;;;;5067757;28;21058;-82
2023/05/07 12:35:27;;;;;;;6.90;6.30;;;;;;;;;;5062863;28;20484;-82
2023/05/07 12:37:55;;;;;;;5.90;5.30;;;;;;;;;;5058919;28;20939;-82
2023/05/07 12:40:22;;;;;;;6.40;5.53;;;;;;;;;;5065585;28;20453;-82
2023/05/07 12:42:53;;;;;;;6.43;5.83;;;;;;;;;;5064926;28;20465;-82
2023/05/07 12:45:20;;;;;;;6.43;5.83;;;;;;;;;;5064207;28;20471;-82
2023/05/07 12:47:47;;;;;;;6.47;5.87;;;;;;;;;;5062105;28;20457;-81
2023/05/07 12:50:13;;;;;;;6.83;6.13;;;;;;;;;;5064455;28;20456;-82
2023/05/07 12:52:40;;;;;;;6.13;5.53;;;;;;;;;;5063521;28;20488;-82
2023/05/07 12:55:07;;;;;;;6.10;5.50;;;;;;;;;;5061616;28;20509;-81
2023/05/07 12:57:38;;;;;;;6.60;6.00;;;;;;;;;;5063646;28;20469;-82
2023/05/07 13:00:07;;;;;;;7.43;6.73;;;;;;;;;;5063900;28;20480;-82
2023/05/07 13:02:34;;;;;;;6.70;5.57;;;;;;;;;;5061348;28;20846;-82
2023/05/07 13:05:00;;;;;;;6.27;5.77;;;;;;;;;;5066838;28;20484;-82
2023/05/07 13:07:27;;;;;;;6.63;5.97;;;;;;;;;;5062499;28;20511;-82
2023/05/07 13:09:53;;;;;;;5.27;4.77;;;;;;;;;;5062965;28;20449;-83
2023/05/07 13:12:20;;;;;;;5.83;5.33;;;;;;;;;;5072505;28;20503;-82
2023/05/07 13:14:47;;;;;;;5.50;5.00;;;;;;;;;;5063443;28;20460;-82
2023/05/07 13:17:15;;;;;;;6.63;5.60;;;;;;;;;;5061381;28;20495;-82
2023/05/07 13:19:41;;;;;;;9.60;5.37;;;;;;;;;;5064962;28;20444;-82
2023/05/07 13:22:08;;;;;;;5.93;5.43;;;;;;;;;;5066830;28;20484;-81
2023/05/07 13:24:34;;;;;;;7.03;5.80;;;;;;;;;;5070139;28;20470;-79
2023/05/07 13:27:01;;;;;;;6.63;6.03;;;;;;;;;;5057090;28;20511;-79
2023/05/07 13:29:30;;;;;;;8.00;6.90;;;;;;;;;;5061093;28;20537;-79
2023/05/07 13:31:57;;;;;;;7.13;6.20;;;;;;;;;;5059106;28;20479;-79
2023/05/07 13:34:25;;;;;;;7.27;6.47;;;;;;;;;;5061042;28;20499;-78
2023/05/07 13:36:51;;;;;;;8.17;6.10;;;;;;;;;;5057949;28;21071;-78
2023/05/07 13:39:18;;;;;;;7.07;5.60;;;;;;;;;;5062547;28;20512;-80
2023/05/07 13:41:44;;;;;;;6.77;6.17;;;;;;;;;;5062098;28;20910;-79
2023/05/07 13:44:11;;;;;;;8.30;7.40;;;;;;;;;;5054780;28;20472;-79
2023/05/07 13:46:37;;;;;;;7.17;6.07;;;;;;;;;;5065946;28;20520;-79
2023/05/07 13:49:04;;;;;;;6.23;5.63;;;;;;;;;;5060200;28;20452;-79
2023/05/07 13:51:32;;;;;;;7.90;5.30;;;;;;;;;;5066670;28;20504;-79
2023/05/07 13:53:59;;;;;;;6.93;6.03;;;;;;;;;;5059913;28;20894;-78
2023/05/07 13:56:25;;;;;;;6.87;6.27;;;;;;;;;;5060828;28;20504;-78
2023/05/07 13:58:52;;;;;;;6.67;6.07;;;;;;;;;;5070927;28;20768;-79
2023/05/07 14:01:18;;;;;;;6.90;6.30;;;;;;;;;;5062488;28;20477;-78
2023/05/07 14:03:45;;;;;;;7.13;6.27;;;;;;;;;;5063355;28;20453;-78
2023/05/07 14:06:11;;;;;;;7.43;6.70;;;;;;;;;;5064125;28;20484;-78
2023/05/07 14:08:39;;;;;;;7.77;6.97;;;;;;;;;;5059140;28;20547;-77
2023/05/07 14:11:05;;;;;;;6.33;5.83;;;;;;;;;;5063206;28;20494;-77
2023/05/07 14:13:34;;;;;;;6.80;6.10;;;;;;;;;;5057887;28;20488;-79
2023/05/07 14:16:01;;;;;;;7.00;6.40;;;;;;;;;;5061837;28;21267;-79
2023/05/07 14:18:28;;;;;;;8.53;7.47;;;;;;;;;;5065104;28;20493;-76
2023/05/07 14:20:55;;;;;;;7.50;6.80;;;;;;;;;;5062641;28;20488;-77
2023/05/07 14:23:26;;;;;;;9.27;8.23;;;;;;;;;;5057346;28;20452;-78